Time;durP1;ratioP1;P1;durP2;ratioP2;P2;SDS_P1;SDS_P2;PMS_P1;PMS_P2;Temp;Humidity;BMP_temperature;BMP_pressure;BME280_temperature;BME280_humidity;BME280_pressure;Samples;Min_cycle;Max_cycle;Signal;HPM_P1;HPM_P2
2022/12/29 00:01:02;;;;;;;6.10;5.50;;;21.70;58.80;;;;;;5063157;28;20992;-73
2022/12/29 00:03:31;;;;;;;8.23;5.17;;;21.70;58.80;;;;;;5060619;28;20466;-74
2022/12/29 00:06:01;;;;;;;4.70;4.30;;;21.70;58.80;;;;;;5061679;28;20465;-73
2022/12/29 00:08:39;;;;;;;5.57;4.70;;;21.70;58.70;;;;;;5064071;28;20462;-74
2022/12/29 00:11:09;;;;;;;5.17;4.70;;;21.70;58.70;;;;;;5052946;28;20952;-74
2022/12/29 00:16:23;;;;;;;4.70;4.30;;;21.70;58.70;;;;;;5058021;28;20496;-74
2022/12/29 00:18:52;;;;;;;5.90;5.50;;;21.70;58.70;;;;;;5065094;28;20435;-73
2022/12/29 00:35:32;;;;;;;4.03;3.63;;;21.60;58.90;;;;;;5046333;28;20541;-74
2022/12/29 00:46:21;;;;;;;4.73;4.20;;;21.60;58.80;;;;;;5034755;28;20462;-73
2022/12/29 00:51:37;;;;;;;4.03;3.73;;;21.60;58.80;;;;;;5048341;28;20494;-74
2022/12/29 00:54:05;;;;;;;5.07;4.17;;;21.60;58.70;;;;;;5047618;28;20509;-74
2022/12/29 00:56:34;;;;;;;3.43;3.23;;;21.70;58.70;;;;;;5046397;28;20464;-74
2022/12/29 00:59:02;;;;;;;4.70;4.40;;;21.60;58.70;;;;;;5056002;28;20799;-74
2022/12/29 01:01:31;;;;;;;4.63;4.23;;;21.70;58.60;;;;;;5034591;28;20471;-74
2022/12/29 01:03:59;;;;;;;3.70;3.50;;;21.70;58.70;;;;;;5047897;28;20456;-74
2022/12/29 01:06:31;;;;;;;4.50;4.20;;;21.70;58.70;;;;;;5029640;28;21009;-73
2022/12/29 01:11:48;;;;;;;5.07;4.03;;;21.70;58.60;;;;;;5052535;28;20471;-73
2022/12/29 01:14:17;;;;;;;4.27;3.90;;;21.70;58.70;;;;;;5041048;28;20545;-74
2022/12/29 01:16:46;;;;;;;3.80;3.50;;;21.70;58.50;;;;;;5055110;28;20518;-74
2022/12/29 01:19:16;;;;;;;3.80;3.50;;;21.70;58.50;;;;;;5053705;28;20801;-73
2022/12/29 01:21:45;;;;;;;3.70;3.40;;;21.70;58.50;;;;;;5049847;28;20478;-73
2022/12/29 01:24:15;;;;;;;3.90;3.57;;;21.70;58.50;;;;;;5039610;28;20810;-74
2022/12/29 01:26:43;;;;;;;4.00;3.03;;;21.70;58.50;;;;;;5043240;28;20466;-73
2022/12/29 01:29:12;;;;;;;3.70;3.40;;;21.70;58.50;;;;;;5048196;28;20828;-73
2022/12/29 01:31:41;;;;;;;3.60;3.30;;;21.70;58.50;;;;;;5051898;28;20545;-73
2022/12/29 01:34:09;;;;;;;4.07;3.67;;;21.70;58.50;;;;;;5033326;28;20478;-73
2022/12/29 01:36:38;;;;;;;4.00;3.70;;;21.70;58.50;;;;;;5032754;28;20537;-74
2022/12/29 01:39:07;;;;;;;3.70;3.40;;;21.70;58.50;;;;;;5032616;28;20452;-73
2022/12/29 01:41:36;;;;;;;4.70;4.33;;;21.70;58.50;;;;;;5046434;28;20931;-77
2022/12/29 01:44:37;;;;;;;3.60;3.30;;;21.70;58.40;;;;;;5044221;28;20467;-81
2022/12/29 01:47:08;;;;;;;3.33;3.03;;;21.70;58.50;;;;;;5041992;28;20548;-80
2022/12/29 01:49:36;;;;;;;4.10;3.80;;;21.70;58.60;;;;;;5047618;28;20486;-82
2022/12/29 01:52:08;;;;;;;3.60;3.30;;;21.70;58.40;;;;;;5050369;28;20463;-82
2022/12/29 01:54:40;;;;;;;4.73;3.70;;;21.70;58.10;;;;;;5045138;28;20491;-82
2022/12/29 01:57:14;;;;;;;3.63;3.10;;;21.70;58.20;;;;;;5046771;28;20950;-79
2022/12/29 01:59:46;;;;;;;4.50;3.60;;;21.70;58.80;;;;;;5050215;28;20477;-82
2022/12/29 02:02:15;;;;;;;4.70;3.90;;;21.70;58.80;;;;;;5023229;28;20470;-82
2022/12/29 02:04:45;;;;;;;3.60;3.30;;;21.70;59.10;;;;;;5053060;28;20488;-78
2022/12/29 02:07:20;;;;;;;3.30;3.10;;;21.60;58.90;;;;;;5044832;28;20451;-81
2022/12/29 02:09:51;;;;;;;3.10;2.80;;;21.70;59.30;;;;;;5029785;28;20454;-81
2022/12/29 02:12:22;;;;;;;5.03;3.43;;;21.70;59.40;;;;;;5052908;28;20940;-82
2022/12/29 02:14:54;;;;;;;2.90;2.70;;;21.70;59.30;;;;;;5043714;28;20454;-80
2022/12/29 02:17:38;;;;;;;3.10;2.83;;;21.70;59.30;;;;;;5049724;28;20888;-73
2022/12/29 02:21:06;;;;;;;2.87;2.60;;;21.70;59.30;;;;;;5051197;28;20873;-81
2022/12/29 02:24:03;;;;;;;3.20;3.00;;;21.70;59.20;;;;;;4962097;28;20577;-81
2022/12/29 02:26:48;;;;;;;3.50;3.30;;;21.70;59.30;;;;;;5050965;28;20541;-75
2022/12/29 02:29:45;;;;;;;3.50;3.20;;;21.70;59.30;;;;;;5046210;28;20471;-80
2022/12/29 02:32:22;;;;;;;4.07;2.90;;;21.70;59.30;;;;;;5027266;28;20975;-81
2022/12/29 02:35:02;;;;;;;3.60;3.30;;;21.60;59.20;;;;;;5035177;28;20475;-77
2022/12/29 02:37:37;;;;;;;3.43;3.10;;;21.70;59.20;;;;;;5027915;28;20500;-79
2022/12/29 02:40:11;;;;;;;2.60;2.40;;;21.70;59.10;;;;;;5025294;28;20496;-76
2022/12/29 02:42:50;;;;;;;3.30;3.00;;;21.70;59.10;;;;;;5027559;28;20538;-81
2022/12/29 02:45:23;;;;;;;2.53;2.37;;;21.70;59.10;;;;;;5039360;28;20515;-81
2022/12/29 02:47:59;;;;;;;3.53;3.23;;;21.70;59.10;;;;;;5032022;28;20473;-80
2022/12/29 02:50:34;;;;;;;3.20;3.00;;;21.70;59.00;;;;;;5039319;28;20479;-81
2022/12/29 02:53:06;;;;;;;3.23;2.53;;;21.70;59.00;;;;;;5054646;28;20975;-77
2022/12/29 02:55:34;;;;;;;2.63;2.43;;;21.70;59.00;;;;;;5073026;28;20492;-81
2022/12/29 02:58:20;;;;;;;2.30;2.13;;;21.70;59.00;;;;;;5054814;28;20473;-80
2022/12/29 03:01:04;;;;;;;2.73;2.53;;;21.70;59.00;;;;;;5072369;28;20460;-81
2022/12/29 03:03:49;;;;;;;2.90;2.70;;;21.70;59.00;;;;;;5071222;28;20473;-77
2022/12/29 03:06:32;;;;;;;3.27;2.97;;;21.70;58.80;;;;;;5066948;28;20489;-80
2022/12/29 03:09:12;;;;;;;2.70;2.50;;;21.70;59.00;;;;;;5053383;28;20849;-81
2022/12/29 03:12:08;;;;;;;2.80;2.60;;;21.70;59.00;;;;;;5072205;28;22049;-77
2022/12/29 03:17:40;;;;;;;2.87;2.63;;;21.70;59.00;;;;;;5072217;28;20452;-80
2022/12/29 03:20:15;;;;;;;2.43;2.23;;;21.70;59.10;;;;;;5065825;28;20461;-80
2022/12/29 03:22:45;;;;;;;2.77;2.40;;;21.70;59.10;;;;;;5061364;28;21010;-80
2022/12/29 03:25:24;;;;;;;2.70;2.50;;;21.70;58.90;;;;;;5045849;28;20461;-80
2022/12/29 03:27:58;;;;;;;3.00;2.67;;;21.70;59.10;;;;;;5071793;28;20662;-80
2022/12/29 03:30:29;;;;;;;3.07;2.87;;;21.70;59.20;;;;;;5055546;28;20468;-80
2022/12/29 03:33:01;;;;;;;4.20;2.60;;;21.70;59.20;;;;;;5054403;28;20469;-80
2022/12/29 03:35:37;;;;;;;2.63;2.40;;;21.70;59.20;;;;;;5053856;28;20449;-81
2022/12/29 03:38:14;;;;;;;2.87;2.63;;;21.70;59.20;;;;;;5047332;28;20465;-78
2022/12/29 03:40:49;;;;;;;2.73;2.20;;;21.70;59.30;;;;;;5078262;28;20512;-77
2022/12/29 03:43:18;;;;;;;2.70;2.50;;;21.70;59.30;;;;;;5053384;28;20478;-80
2022/12/29 03:45:48;;;;;;;2.40;2.20;;;21.70;59.30;;;;;;5056494;28;20456;-80
2022/12/29 03:48:16;;;;;;;2.30;2.07;;;21.70;59.30;;;;;;5061862;28;20801;-80
2022/12/29 03:50:47;;;;;;;2.43;2.23;;;21.70;59.30;;;;;;5076737;28;20492;-80
2022/12/29 03:53:16;;;;;;;2.37;2.17;;;21.70;59.30;;;;;;5046636;28;20987;-80
2022/12/29 03:55:46;;;;;;;2.50;2.30;;;21.70;59.30;;;;;;5047203;28;20802;-80
2022/12/29 03:58:14;;;;;;;2.70;2.50;;;21.70;59.30;;;;;;5061406;28;20495;-82
2022/12/29 04:01:08;;;;;;;2.50;2.40;;;21.70;59.30;;;;;;5059223;28;20463;-80
2022/12/29 04:03:40;;;;;;;3.27;2.97;;;21.70;59.40;;;;;;5059234;28;20530;-81
2022/12/29 04:06:10;;;;;;;2.60;2.40;;;21.70;59.40;;;;;;5054668;28;20451;-80
2022/12/29 04:08:52;;;;;;;2.57;2.37;;;21.70;59.30;;;;;;5053875;28;20875;-77
2022/12/29 04:11:21;;;;;;;2.03;1.93;;;21.70;59.30;;;;;;5049452;28;20462;-80
2022/12/29 04:13:55;;;;;;;2.53;2.33;;;21.70;59.30;;;;;;5049786;28;20467;-81
2022/12/29 04:16:25;;;;;;;2.10;2.00;;;21.70;59.30;;;;;;5059968;28;20504;-81
2022/12/29 04:18:54;;;;;;;2.10;2.00;;;21.70;59.30;;;;;;5057098;28;20459;-81
2022/12/29 04:21:24;;;;;;;3.37;2.50;;;21.70;59.30;;;;;;5038720;28;20490;-80
2022/12/29 04:23:53;;;;;;;2.97;2.77;;;21.70;59.20;;;;;;5041528;28;20839;-79
2022/12/29 04:26:21;;;;;;;5.03;2.47;;;21.70;59.20;;;;;;5059226;28;20453;-80
2022/12/29 04:28:56;;;;;;;2.67;1.93;;;21.70;59.20;;;;;;5059557;28;20470;-81
2022/12/29 04:31:36;;;;;;;2.10;2.00;;;21.70;59.20;;;;;;5055754;28;20823;-81
2022/12/29 04:34:04;;;;;;;1.97;1.87;;;21.70;59.10;;;;;;5046231;28;20784;-81
2022/12/29 04:36:34;;;;;;;3.00;2.67;;;21.70;59.10;;;;;;5071648;28;20458;-80
2022/12/29 04:39:04;;;;;;;2.07;1.87;;;21.70;59.00;;;;;;5051923;28;20477;-79
2022/12/29 04:41:34;;;;;;;2.30;2.20;;;21.70;59.00;;;;;;5054561;28;20963;-80
2022/12/29 04:44:03;;;;;;;2.97;1.80;;;21.70;58.90;;;;;;5047139;28;20484;-77
2022/12/29 04:46:49;;;;;;;2.03;1.93;;;21.70;58.60;;;;;;5070067;28;20460;-81
2022/12/29 04:49:33;;;;;;;2.03;1.93;;;21.70;58.80;;;;;;5050424;28;20987;-80
2022/12/29 04:52:23;;;;;;;2.10;1.90;;;21.70;58.50;;;;;;5067847;28;20485;-80
2022/12/29 04:54:52;;;;;;;1.70;1.60;;;21.70;58.20;;;;;;5053613;28;20514;-80
2022/12/29 04:57:21;;;;;;;1.77;1.67;;;21.70;59.00;;;;;;5031175;28;20924;-81
2022/12/29 04:59:54;;;;;;;1.93;1.83;;;21.70;59.10;;;;;;5035523;28;20560;-80
2022/12/29 05:02:23;;;;;;;2.00;1.83;;;21.70;59.10;;;;;;5041189;28;20473;-76
2022/12/29 05:04:52;;;;;;;3.47;1.80;;;21.70;59.20;;;;;;5033297;28;20470;-81
2022/12/29 05:07:20;;;;;;;2.10;1.90;;;21.70;59.10;;;;;;5025861;28;21001;-80
2022/12/29 05:09:50;;;;;;;1.77;1.67;;;21.70;59.20;;;;;;5038625;28;20561;-81
2022/12/29 05:12:19;;;;;;;2.10;2.00;;;21.70;59.20;;;;;;5038832;28;20462;-82
2022/12/29 05:14:54;;;;;;;2.20;2.00;;;21.70;59.20;;;;;;5034166;28;20470;-82
2022/12/29 05:17:23;;;;;;;2.77;1.80;;;21.70;59.20;;;;;;5038513;28;20468;-79
2022/12/29 05:19:51;;;;;;;1.80;1.70;;;21.70;59.30;;;;;;5057653;28;20548;-82
2022/12/29 05:22:19;;;;;;;2.33;2.13;;;21.70;59.30;;;;;;5044733;28;20477;-82
2022/12/29 05:24:48;;;;;;;1.63;1.53;;;21.70;59.30;;;;;;5047826;28;20496;-83
2022/12/29 05:27:19;;;;;;;2.33;2.13;;;21.70;59.40;;;;;;5034648;28;20458;-81
2022/12/29 05:29:53;;;;;;;1.87;1.77;;;21.70;59.40;;;;;;5045748;28;20541;-80
2022/12/29 05:32:21;;;;;;;1.60;1.50;;;21.70;59.40;;;;;;5034382;28;20558;-82
2022/12/29 05:34:49;;;;;;;1.90;1.70;;;21.70;59.40;;;;;;5037788;28;20466;-78
2022/12/29 05:37:19;;;;;;;1.70;1.57;;;21.70;59.40;;;;;;5032911;28;20823;-80
2022/12/29 05:39:47;;;;;;;2.47;1.90;;;21.70;59.40;;;;;;5054199;28;20594;-84
2022/12/29 05:42:15;;;;;;;3.00;1.53;;;21.70;59.40;;;;;;5043576;28;20442;-76
2022/12/29 05:45:08;;;;;;;1.90;1.80;;;21.70;59.40;;;;;;5037535;28;20478;-73
2022/12/29 05:47:56;;;;;;;2.97;2.17;;;21.70;59.50;;;;;;5040532;28;20466;-84
2022/12/29 05:50:48;;;;;;;2.87;2.30;;;21.80;58.80;;;;;;5034681;28;20498;-84
2022/12/29 05:53:19;;;;;;;1.63;1.53;;;21.80;58.40;;;;;;5027141;28;20503;-77
2022/12/29 05:55:48;;;;;;;3.67;2.97;;;21.80;58.10;;;;;;5042189;28;20459;-83
2022/12/29 05:58:18;;;;;;;6.43;1.97;;;21.70;59.00;;;;;;5049940;28;20473;-84
2022/12/29 06:00:49;;;;;;;2.97;2.33;;;21.70;58.80;;;;;;5054185;28;20549;-83
2022/12/29 06:03:17;;;;;;;2.23;2.03;;;21.70;58.90;;;;;;5053486;28;20541;-83
2022/12/29 06:05:46;;;;;;;2.53;2.10;;;21.70;59.00;;;;;;5049679;28;20475;-83
2022/12/29 06:08:16;;;;;;;3.17;1.93;;;21.70;59.10;;;;;;5051216;28;20470;-80
2022/12/29 06:10:44;;;;;;;2.50;2.13;;;21.70;59.30;;;;;;5049578;28;20478;-84
2022/12/29 06:13:12;;;;;;;2.67;2.07;;;21.70;59.40;;;;;;5040702;28;20455;-84
2022/12/29 06:15:43;;;;;;;3.13;2.20;;;21.70;59.50;;;;;;5053431;28;20489;-79
2022/12/29 06:18:13;;;;;;;3.43;2.00;;;21.70;59.60;;;;;;5056783;28;20815;-79
2022/12/29 06:20:47;;;;;;;3.30;2.47;;;21.70;59.70;;;;;;5056470;28;20458;-84
2022/12/29 06:23:18;;;;;;;2.73;1.70;;;21.60;59.80;;;;;;5045215;28;20513;-81
2022/12/29 06:25:48;;;;;;;2.93;2.10;;;21.60;59.90;;;;;;5052643;28;20469;-82
2022/12/29 06:28:17;;;;;;;3.07;1.93;;;21.60;60.00;;;;;;5056729;28;20469;-81
2022/12/29 06:30:46;;;;;;;4.67;2.37;;;21.60;60.00;;;;;;5060265;28;20503;-78
2022/12/29 06:33:16;;;;;;;2.80;2.00;;;21.60;60.10;;;;;;5053824;28;20530;-81
2022/12/29 06:35:45;;;;;;;2.20;2.00;;;21.60;60.10;;;;;;5050140;28;20494;-83
2022/12/29 06:38:15;;;;;;;2.30;2.20;;;21.60;60.10;;;;;;5056942;28;20456;-76
2022/12/29 06:40:45;;;;;;;2.80;1.97;;;21.60;60.20;;;;;;5053733;28;21365;-81
2022/12/29 06:43:42;;;;;;;1.97;1.87;;;21.60;60.20;;;;;;5051442;28;20478;-83
2022/12/29 06:46:37;;;;;;;2.17;1.97;;;21.60;60.10;;;;;;5054451;28;20476;-73
2022/12/29 06:49:06;;;;;;;4.53;2.33;;;21.60;60.20;;;;;;5050864;28;20826;-78
2022/12/29 06:51:34;;;;;;;4.80;2.20;;;21.60;60.10;;;;;;5053368;28;20885;-78
2022/12/29 06:54:03;;;;;;;4.13;2.50;;;21.60;60.10;;;;;;5058359;28;20841;-78
2022/12/29 06:56:31;;;;;;;2.47;1.67;;;21.60;60.00;;;;;;5064291;28;20456;-78
2022/12/29 06:59:00;;;;;;;2.70;2.50;;;21.70;59.90;;;;;;5077207;28;20481;-78
2022/12/29 07:01:29;;;;;;;2.73;1.90;;;21.70;59.90;;;;;;5078758;28;20527;-77
2022/12/29 07:03:57;;;;;;;2.50;2.30;;;21.70;59.80;;;;;;5050632;28;20487;-76
2022/12/29 07:06:26;;;;;;;2.73;1.90;;;21.70;59.70;;;;;;5062172;28;20564;-77
2022/12/29 07:08:57;;;;;;;5.63;2.20;;;21.70;59.60;;;;;;5064962;28;20481;-78
2022/12/29 07:11:25;;;;;;;2.20;2.10;;;21.70;59.60;;;;;;5057959;28;20553;-77
2022/12/29 07:13:53;;;;;;;3.33;2.20;;;21.70;59.50;;;;;;5070901;28;21016;-78
2022/12/29 07:16:21;;;;;;;1.80;1.53;;;21.70;59.40;;;;;;5069581;28;20537;-78
2022/12/29 07:18:49;;;;;;;3.63;2.00;;;21.70;59.40;;;;;;5052855;28;20532;-77
2022/12/29 07:21:18;;;;;;;1.90;1.80;;;21.70;59.40;;;;;;5064334;28;20863;-77
2022/12/29 07:23:47;;;;;;;1.87;1.77;;;21.70;59.40;;;;;;5076190;28;20535;-76
2022/12/29 07:26:17;;;;;;;2.03;1.90;;;21.70;59.30;;;;;;5073781;28;20968;-77
2022/12/29 07:28:45;;;;;;;2.00;1.80;;;21.70;59.30;;;;;;5055947;28;20457;-77
2022/12/29 07:31:16;;;;;;;7.77;2.10;;;21.70;59.30;;;;;;5058942;28;20996;-78
2022/12/29 07:33:44;;;;;;;1.70;1.60;;;21.70;59.30;;;;;;5077367;28;20475;-78
2022/12/29 07:36:13;;;;;;;2.87;2.10;;;21.70;59.40;;;;;;5073115;28;20449;-78
2022/12/29 07:38:42;;;;;;;4.70;1.90;;;21.60;59.40;;;;;;5060056;28;20518;-78
2022/12/29 07:41:12;;;;;;;2.00;1.90;;;21.60;59.40;;;;;;5064606;28;21005;-77
2022/12/29 07:43:40;;;;;;;3.17;1.67;;;21.60;59.40;;;;;;5060483;28;20500;-76
2022/12/29 07:46:34;;;;;;;1.87;1.77;;;21.60;59.00;;;;;;5028413;28;20482;-75
2022/12/29 07:49:21;;;;;;;1.83;1.73;;;21.60;59.00;;;;;;5090129;28;20444;-78
2022/12/29 07:51:50;;;;;;;1.73;1.63;;;21.60;59.20;;;;;;5058315;28;20553;-78
2022/12/29 07:54:19;;;;;;;1.70;1.60;;;21.60;59.50;;;;;;5070451;28;20580;-78
2022/12/29 07:56:48;;;;;;;1.90;1.80;;;21.60;59.50;;;;;;5074182;28;20465;-78
2022/12/29 07:59:16;;;;;;;2.40;1.77;;;21.60;59.50;;;;;;5064585;28;20486;-78
2022/12/29 08:01:44;;;;;;;1.83;1.70;;;21.60;59.40;;;;;;5063335;28;20508;-78
2022/12/29 08:04:13;;;;;;;1.70;1.43;;;21.60;59.40;;;;;;5060774;28;20449;-77
2022/12/29 08:06:41;;;;;;;1.93;1.50;;;21.60;59.40;;;;;;5071258;28;21033;-76
2022/12/29 08:09:09;;;;;;;2.00;1.77;;;21.60;59.40;;;;;;5070212;28;20460;-78
2022/12/29 08:11:48;;;;;;;2.93;1.37;;;21.60;59.40;;;;;;5067351;28;20455;-76
2022/12/29 08:14:16;;;;;;;1.47;1.37;;;21.60;59.40;;;;;;5069849;28;20449;-77
2022/12/29 08:16:44;;;;;;;1.30;1.20;;;21.70;59.30;;;;;;5062836;28;20563;-78
2022/12/29 08:19:13;;;;;;;1.20;1.20;;;21.70;59.20;;;;;;5059624;28;20466;-78
2022/12/29 08:21:41;;;;;;;1.60;1.50;;;21.70;59.20;;;;;;5068179;28;20549;-76
2022/12/29 08:24:10;;;;;;;1.73;1.63;;;21.70;59.10;;;;;;5066297;28;20506;-78
2022/12/29 08:26:38;;;;;;;1.60;1.50;;;21.70;59.10;;;;;;5059036;28;20982;-79
2022/12/29 08:29:07;;;;;;;1.77;1.60;;;21.70;59.10;;;;;;5074398;28;20460;-78
2022/12/29 08:31:35;;;;;;;1.77;1.67;;;21.70;59.10;;;;;;5062133;28;20493;-76
2022/12/29 08:34:04;;;;;;;2.07;1.87;;;21.70;59.00;;;;;;5066755;28;20446;-79
2022/12/29 08:36:32;;;;;;;1.77;1.63;;;21.80;59.00;;;;;;5053370;28;20461;-77
2022/12/29 08:39:00;;;;;;;2.43;1.53;;;21.80;59.00;;;;;;5047557;28;20458;-78
2022/12/29 08:41:28;;;;;;;2.07;1.87;;;21.80;59.00;;;;;;5073041;28;20534;-78
2022/12/29 08:43:57;;;;;;;1.70;1.60;;;21.80;59.00;;;;;;5064703;28;20940;-77
2022/12/29 08:46:26;;;;;;;1.70;1.43;;;21.80;59.00;;;;;;5063847;28;20504;-77
2022/12/29 08:48:55;;;;;;;2.50;1.70;;;21.70;59.00;;;;;;5064760;28;20482;-77
2022/12/29 08:51:23;;;;;;;1.87;1.77;;;21.70;59.00;;;;;;5072161;28;20556;-78
2022/12/29 08:53:52;;;;;;;1.70;1.60;;;21.70;59.00;;;;;;5056676;28;20981;-76
2022/12/29 08:56:23;;;;;;;1.13;1.07;;;21.70;59.00;;;;;;5028443;28;20482;-78
2022/12/29 08:58:55;;;;;;;2.57;1.50;;;21.70;59.00;;;;;;5022293;28;20467;-77
2022/12/29 09:01:26;;;;;;;1.70;1.60;;;21.70;59.10;;;;;;5048222;28;20469;-75
2022/12/29 09:03:54;;;;;;;1.50;1.40;;;21.70;59.10;;;;;;5041617;28;20489;-78
2022/12/29 09:06:43;;;;;;;1.40;1.30;;;21.70;59.10;;;;;;5059723;28;20465;-76
2022/12/29 09:09:11;;;;;;;5.53;1.77;;;21.70;59.10;;;;;;5044289;28;20452;-78
2022/12/29 09:11:40;;;;;;;1.30;1.20;;;21.70;59.10;;;;;;5039150;28;20470;-76
2022/12/29 09:14:08;;;;;;;1.40;1.30;;;21.70;59.10;;;;;;5046648;28;20535;-78
2022/12/29 09:16:38;;;;;;;1.97;1.63;;;21.80;59.10;;;;;;5060990;28;20439;-78
2022/12/29 09:19:06;;;;;;;1.47;1.37;;;21.70;59.00;;;;;;5052700;28;20474;-78
2022/12/29 09:21:34;;;;;;;1.70;1.37;;;21.80;59.10;;;;;;5050477;28;20493;-77
2022/12/29 09:24:03;;;;;;;1.57;1.47;;;21.80;59.00;;;;;;5042275;28;20451;-78
2022/12/29 09:26:31;;;;;;;1.47;1.37;;;21.80;59.00;;;;;;5049580;28;20513;-78
2022/12/29 09:28:59;;;;;;;1.10;1.10;;;21.80;59.00;;;;;;5052980;28;20545;-78
2022/12/29 09:31:27;;;;;;;1.40;1.23;;;21.80;59.00;;;;;;5048242;28;20460;-78
2022/12/29 09:33:57;;;;;;;1.60;1.50;;;21.80;58.90;;;;;;5049283;28;20625;-77
2022/12/29 09:36:25;;;;;;;1.70;1.60;;;21.90;58.90;;;;;;5045307;28;20478;-76
2022/12/29 09:38:54;;;;;;;1.43;1.33;;;21.90;58.80;;;;;;5052652;28;20555;-77
2022/12/29 09:41:27;;;;;;;1.33;1.23;;;21.90;58.80;;;;;;5050810;28;20548;-78
2022/12/29 09:44:05;;;;;;;1.33;1.23;;;21.90;58.80;;;;;;5050942;28;20503;-77
2022/12/29 09:46:36;;;;;;;1.47;1.37;;;21.90;58.70;;;;;;5054560;28;20471;-78
2022/12/29 09:49:22;;;;;;;1.80;1.70;;;22.00;58.70;;;;;;5043159;28;20538;-78
2022/12/29 09:51:54;;;;;;;1.33;1.23;;;22.00;58.70;;;;;;5036050;28;20484;-77
2022/12/29 09:54:35;;;;;;;1.60;1.50;;;22.00;58.60;;;;;;5039992;28;20542;-78
2022/12/29 09:57:04;;;;;;;1.77;1.67;;;22.00;58.60;;;;;;5045899;28;20471;-78
2022/12/29 09:59:40;;;;;;;1.30;1.20;;;22.00;58.60;;;;;;5054675;28;20454;-78
2022/12/29 10:02:24;;;;;;;1.40;1.20;;;22.00;58.60;;;;;;5042061;28;20457;-75
2022/12/29 10:04:54;;;;;;;1.53;1.43;;;22.00;58.60;;;;;;5053979;28;20505;-76
2022/12/29 10:07:31;;;;;;;1.63;1.53;;;22.00;58.50;;;;;;5044564;28;20507;-77
2022/12/29 10:10:16;;;;;;;1.20;1.20;;;22.10;58.50;;;;;;5049472;28;20522;-76
2022/12/29 10:12:56;;;;;;;1.80;1.50;;;22.10;58.40;;;;;;5056846;28;20460;-76
2022/12/29 10:15:49;;;;;;;1.40;1.30;;;22.10;58.40;;;;;;5028331;28;20485;-76
2022/12/29 10:18:33;;;;;;;1.20;1.20;;;22.10;58.40;;;;;;5054295;28;20462;-76
2022/12/29 10:21:09;;;;;;;1.50;1.40;;;22.10;58.40;;;;;;5048747;28;20443;-76
2022/12/29 10:23:43;;;;;;;1.50;1.40;;;22.10;58.40;;;;;;5049102;28;21009;-76
2022/12/29 10:26:15;;;;;;;1.60;1.50;;;22.10;58.40;;;;;;5044732;28;20858;-76
2022/12/29 10:28:47;;;;;;;1.30;1.20;;;22.10;58.30;;;;;;5047828;28;20474;-76
2022/12/29 10:31:20;;;;;;;2.23;1.40;;;22.20;58.30;;;;;;5053128;28;20460;-74
2022/12/29 10:33:53;;;;;;;1.97;1.87;;;22.20;58.30;;;;;;5042292;28;20493;-77
2022/12/29 10:36:30;;;;;;;1.70;1.60;;;22.20;58.30;;;;;;5033400;28;20980;-76
2022/12/29 10:39:07;;;;;;;2.00;1.60;;;22.20;58.20;;;;;;5053256;28;20854;-76
2022/12/29 10:41:40;;;;;;;2.20;1.70;;;22.30;58.10;;;;;;5031622;28;20458;-76
2022/12/29 10:44:14;;;;;;;1.77;1.67;;;22.30;58.10;;;;;;5046020;28;20514;-76
2022/12/29 10:46:44;;;;;;;1.43;1.10;;;22.40;58.10;;;;;;5036130;28;20480;-76
2022/12/29 10:49:17;;;;;;;1.57;1.47;;;22.40;57.80;;;;;;5051648;28;20482;-77
2022/12/29 10:51:52;;;;;;;1.70;1.60;;;22.50;57.80;;;;;;5054131;28;20505;-77
2022/12/29 10:54:27;;;;;;;1.87;1.57;;;22.60;57.80;;;;;;5052281;28;20557;-76
2022/12/29 10:57:01;;;;;;;1.50;1.40;;;22.60;57.50;;;;;;5038721;28;20447;-74
2022/12/29 10:59:31;;;;;;;1.57;1.47;;;22.60;57.30;;;;;;5054614;28;20463;-76
2022/12/29 11:02:16;;;;;;;1.27;1.17;;;22.60;57.30;;;;;;5056354;28;21103;-77
2022/12/29 11:04:53;;;;;;;1.57;1.47;;;22.60;57.30;;;;;;5037563;28;20933;-74
2022/12/29 11:07:23;;;;;;;1.40;1.30;;;22.60;57.50;;;;;;5057779;28;20471;-76
2022/12/29 11:09:55;;;;;;;1.67;1.57;;;22.50;57.40;;;;;;5050445;28;20440;-74
2022/12/29 11:12:25;;;;;;;1.70;1.60;;;22.50;57.50;;;;;;5051956;28;20949;-76
2022/12/29 11:15:14;;;;;;;1.87;1.60;;;22.40;57.50;;;;;;5051462;28;20455;-76
2022/12/29 11:17:47;;;;;;;1.40;1.20;;;22.40;57.60;;;;;;5032695;28;20548;-76
2022/12/29 11:20:34;;;;;;;1.83;1.73;;;22.30;57.70;;;;;;5058815;28;21127;-76
2022/12/29 11:23:23;;;;;;;2.33;1.23;;;22.30;57.70;;;;;;5029589;28;20455;-76
2022/12/29 11:26:18;;;;;;;1.57;1.50;;;22.20;57.80;;;;;;5055173;28;20452;-76
2022/12/29 11:28:48;;;;;;;1.53;1.43;;;22.20;57.80;;;;;;5056611;28;20480;-75
2022/12/29 11:31:18;;;;;;;1.30;1.20;;;22.20;57.80;;;;;;5053840;28;21088;-75
2022/12/29 11:33:46;;;;;;;1.40;1.30;;;22.20;57.80;;;;;;5055546;28;21036;-76
2022/12/29 11:36:18;;;;;;;1.33;1.30;;;22.20;57.90;;;;;;5035490;28;20490;-76
2022/12/29 11:38:51;;;;;;;1.70;1.60;;;22.20;58.00;;;;;;5045425;28;20487;-73
2022/12/29 11:41:24;;;;;;;1.63;1.40;;;22.20;58.00;;;;;;5052250;28;20458;-76
2022/12/29 11:43:56;;;;;;;1.40;1.30;;;22.20;58.10;;;;;;5042373;28;20497;-76
2022/12/29 11:46:27;;;;;;;1.50;1.40;;;22.20;58.00;;;;;;5054537;28;20478;-73
2022/12/29 11:48:59;;;;;;;1.60;1.50;;;22.20;58.00;;;;;;5043134;28;20476;-74
2022/12/29 11:51:30;;;;;;;1.43;1.33;;;22.20;57.80;;;;;;5054085;28;20521;-76
2022/12/29 11:54:03;;;;;;;1.67;1.57;;;22.30;58.00;;;;;;5055301;28;20880;-76
2022/12/29 11:56:37;;;;;;;1.40;1.30;;;22.40;57.90;;;;;;5047238;28;20453;-76
2022/12/29 11:59:37;;;;;;;1.70;1.60;;;22.40;57.80;;;;;;5056942;28;20801;-76
2022/12/29 12:02:32;;;;;;;1.90;1.73;;;22.40;57.60;;;;;;5057076;28;20465;-76
2022/12/29 12:05:26;;;;;;;1.53;1.43;;;22.50;57.70;;;;;;5047816;28;20530;-76
2022/12/29 12:08:00;;;;;;;1.77;1.67;;;22.50;57.60;;;;;;5054720;28;20530;-77
2022/12/29 12:10:38;;;;;;;1.20;1.20;;;22.50;57.70;;;;;;5046032;28;20458;-76
2022/12/29 12:13:16;;;;;;;3.33;1.50;;;22.40;57.60;;;;;;5033446;28;20486;-74
2022/12/29 12:15:50;;;;;;;1.63;1.53;;;22.40;57.60;;;;;;5032204;28;20481;-77
2022/12/29 12:18:34;;;;;;;1.80;1.70;;;22.40;57.70;;;;;;5032200;28;20459;-76
2022/12/29 12:21:09;;;;;;;1.50;1.20;;;22.40;57.70;;;;;;5046013;28;20875;-76
2022/12/29 12:23:49;;;;;;;1.57;1.40;;;22.40;57.70;;;;;;5042291;28;20477;-76
2022/12/29 12:26:22;;;;;;;1.33;1.20;;;22.40;57.80;;;;;;5039915;28;20559;-76
2022/12/29 12:28:55;;;;;;;1.63;1.53;;;22.30;57.80;;;;;;5043339;28;20509;-76
2022/12/29 12:31:36;;;;;;;1.40;1.30;;;22.30;57.80;;;;;;5046535;28;20989;-76
2022/12/29 12:34:11;;;;;;;3.90;1.70;;;22.30;57.70;;;;;;5047336;28;20444;-76
2022/12/29 12:37:10;;;;;;;1.07;1.07;;;22.20;57.90;;;;;;5052771;28;20442;-76
2022/12/29 12:39:46;;;;;;;1.40;1.30;;;22.20;57.90;;;;;;5017766;28;21369;-76
2022/12/29 12:42:28;;;;;;;1.70;1.40;;;22.20;58.00;;;;;;5049117;28;20532;-72
2022/12/29 12:45:14;;;;;;;1.30;1.20;;;22.20;58.00;;;;;;5044937;28;20527;-74
2022/12/29 12:47:55;;;;;;;1.40;1.30;;;22.20;57.90;;;;;;5040457;28;20510;-76
2022/12/29 12:50:37;;;;;;;1.50;1.40;;;22.20;58.10;;;;;;5052650;28;20593;-76
2022/12/29 12:53:31;;;;;;;2.10;1.70;;;22.20;58.00;;;;;;5052315;28;20522;-76
2022/12/29 12:56:31;;;;;;;1.27;1.17;;;22.20;58.20;;;;;;5047213;28;20548;-77
2022/12/29 12:59:11;;;;;;;1.47;1.33;;;22.20;58.20;;;;;;5040684;28;20493;-76
2022/12/29 13:01:51;;;;;;;1.60;1.50;;;22.20;58.10;;;;;;5043550;28;20821;-76
2022/12/29 13:04:38;;;;;;;1.40;1.30;;;22.20;58.00;;;;;;5043688;28;20477;-75
2022/12/29 13:07:19;;;;;;;1.83;1.73;;;22.20;58.10;;;;;;5052543;28;20567;-76
2022/12/29 13:09:59;;;;;;;1.33;1.33;;;22.20;58.00;;;;;;5022040;28;20550;-76
2022/12/29 13:12:37;;;;;;;1.40;1.30;;;22.20;58.00;;;;;;5058431;28;20549;-75
2022/12/29 13:15:24;;;;;;;1.73;1.63;;;22.20;58.10;;;;;;5062924;28;20844;-78
2022/12/29 13:18:03;;;;;;;1.10;1.00;;;22.20;58.00;;;;;;5043513;28;20530;-76
2022/12/29 13:20:40;;;;;;;1.80;1.40;;;22.20;58.10;;;;;;5038577;28;20452;-76
2022/12/29 13:23:16;;;;;;;1.83;1.50;;;22.30;58.10;;;;;;5050363;28;20437;-76
2022/12/29 13:25:51;;;;;;;1.93;1.67;;;22.20;58.10;;;;;;5054065;28;20470;-76
2022/12/29 13:28:28;;;;;;;2.23;1.50;;;22.20;58.00;;;;;;5057753;28;20537;-76
2022/12/29 13:31:05;;;;;;;1.20;1.20;;;22.20;58.00;;;;;;5050759;28;20486;-76
2022/12/29 13:33:41;;;;;;;1.53;1.20;;;22.20;58.00;;;;;;5051594;28;20533;-74
2022/12/29 13:36:22;;;;;;;1.47;1.10;;;22.20;58.10;;;;;;5043888;28;20598;-76
2022/12/29 13:38:56;;;;;;;1.10;1.10;;;22.20;58.20;;;;;;5034080;28;20470;-74
2022/12/29 13:41:31;;;;;;;1.30;1.20;;;22.20;58.20;;;;;;5041466;28;20507;-76
2022/12/29 13:44:02;;;;;;;1.30;1.20;;;22.20;58.20;;;;;;5045787;28;20505;-76
2022/12/29 13:46:39;;;;;;;1.50;1.40;;;22.10;58.30;;;;;;5055855;28;20444;-76
2022/12/29 13:49:13;;;;;;;1.30;1.20;;;22.10;58.30;;;;;;5035726;28;20972;-76
2022/12/29 13:51:47;;;;;;;2.07;1.50;;;22.10;58.30;;;;;;5051257;28;20481;-76
2022/12/29 13:54:28;;;;;;;1.60;1.50;;;22.10;58.30;;;;;;5045667;28;20821;-76
2022/12/29 13:57:06;;;;;;;1.87;1.50;;;22.10;58.30;;;;;;5045620;28;20502;-76